Mayfield Heights, OH (44124)

6:06 PM EDT on September 30, 2014 (GMT -0400)
Buckeye Woodhill | Change Station
CLOSE
Current Station
Personal Weather Station
Location: Cleveland, OH
Elevation: 768 ft
Nearby Weather Stations

Elev 768 ft 41.48 °N, 81.62 °W | Updated 1 minute ago

Overcast
Overcast
59.5 °F
Feels Like 59.5 °F
N
0.0
Wind Variable Wind from NW
Gusts 7.0 mph

Today
High -- | Low -- °F
--% Chance of Precip.
Yesterday
High -- | Low -- °F
Precip. -- in
7:22 AM 7:10 PM
Waxing Crescent, 40% visible
Pressure 29.94 in
Visibility 10.0 miles
Clouds Scattered Clouds 2000 ft
Overcast 4100 ft
Dew Point 55 °F
Humidity 84%
Rainfall 0.28 in
Snow Depth Not available.
UV 0 out of 12
Pollen .40 out of 12
Ozone Good
PM2.5 Good
Flu Activity Not available.
METAR KBKL 302153Z 34009KT 10SM SCT020 OVC041 16/12 A2994 RMK AO2 SLP136 T01560117

More Conditions Fewer Conditions

Pressure 29.94 in
Visibility 10.0 miles
Clouds Scattered Clouds 2000 ft
Overcast 4100 ft
Dew Point 55 °F
Humidity 84%
Rainfall 0.28 in
Snow Depth Not available.
UV 0 out of 12
Pollen .40 out of 12
Ozone Good
PM2.5 Good
Flu Activity Not available.
METAR KBKL 302153Z 34009KT 10SM SCT020 OVC041 16/12 A2994 RMK AO2 SLP136 T01560117

More Conditions Fewer Conditions

10-Day Weather Forecast

Almanac

Astronomy

Sep. 30, 2014 Rise Set
Actual Time 7:22 AM EDT 7:10 PM EDT
Civil Twilight 6:54 AM EDT 7:37 PM EDT
Nautical Twilight 6:22 AM EDT 8:09 PM EDT
Astronomical Twilight 5:49 AM EDT 8:42 PM EDT
Moon 1:32 PM EDT 11:35 PM EDT
Length of Visible Light 12h 42m
Length of Day
11h 47m
Tomorrow will be 2m 45s shorter.
Waxing Crescent, 40% of the Moon is Illuminated
Today
Waxing Crescent
Oct 1
First Quarter
Oct 8
Full
Oct 15
Last Quarter
Oct 23
New

Today's Extremes

State Highs State Lows

Community

WunderPhotos

Upload Photos

1,757,759 photos uploaded!

Nearby

Air Quality

  Air Quality AQ Index Pollutant
Yesterday Moderate
PM2.5
Yesterday Good
OZONE
Current Good
OZONE
Current Good
PM2.5
Tuesday Moderate
PM2.5
Tuesday Good
OZONE
Wednesday Moderate
PM2.5
Wednesday Good
OZONE
Thursday Moderate
PM2.5
Thursday Good
OZONE

Snow Depth

Station Depth Elevation
No new snow has been reported.

Earthquake Activity

City Distance Mag. Time & Date
No recent earthquake activity has been reported nearby.
Minimum magnitude displayed is 2.5.

Coastal Water Temperatures

Place Temperature
Cleveland, OH 66.0 °F
Fairport, OH 66.9 °F

Nearby Weather Stations